Time;durP1;ratioP1;P1;durP2;ratioP2;P2;SDS_P1;SDS_P2;PMS_P1;PMS_P2;Temp;Humidity;BMP_temperature;BMP_pressure;BME280_temperature;BME280_humidity;BME280_pressure;Samples;Min_cycle;Max_cycle;Signal;HPM_P1;HPM_P2
2023/02/27 00:01:43;;;;;;;7.85;3.55;;;;;;;;;;4992627;28;20491;-43
2023/02/27 00:04:09;;;;;;;6.43;3.35;;;;;;;;;;4993312;28;20528;-41
2023/02/27 00:06:35;;;;;;;3.80;3.50;;;;;;;;;;4993313;28;20188;-42
2023/02/27 00:09:01;;;;;;;4.60;3.47;;;;;;;;;;4993063;28;20417;-42
2023/02/27 00:11:27;;;;;;;3.97;3.67;;;;;;;;;;4992731;28;20435;-41
2023/02/27 00:13:53;;;;;;;3.73;3.40;;;;;;;;;;4992926;28;20192;-41
2023/02/27 00:16:19;;;;;;;3.63;3.30;;;;;;;;;;4993137;28;20416;-42
2023/02/27 00:18:45;;;;;;;3.78;3.47;;;;;;;;;;4992680;28;20854;-43
2023/02/27 00:21:11;;;;;;;4.10;3.80;;;;;;;;;;4992412;28;20300;-42
2023/02/27 00:23:37;;;;;;;4.50;3.90;;;;;;;;;;4992987;28;20747;-41
2023/02/27 00:44:24;;;;;;;5.45;4.95;;;;;;;;;;4987415;28;20223;-41
2023/02/27 00:46:50;;;;;;;5.70;4.30;;;;;;;;;;4990314;28;20188;-41
2023/02/27 00:49:16;;;;;;;9.47;4.67;;;;;;;;;;4992086;28;20419;-41
2023/02/27 00:51:42;;;;;;;5.95;4.55;;;;;;;;;;4991789;28;20432;-46
2023/02/27 00:54:08;;;;;;;4.40;4.07;;;;;;;;;;4992586;28;20239;-42
2023/02/27 00:56:35;;;;;;;7.77;5.30;;;;;;;;;;4992749;28;20181;-42
2023/02/27 00:59:01;;;;;;;4.97;4.47;;;;;;;;;;4992178;28;20404;-42
2023/02/27 01:01:27;;;;;;;7.53;4.80;;;;;;;;;;4991360;28;20327;-42
2023/02/27 01:03:53;;;;;;;5.30;4.50;;;;;;;;;;4992054;28;20409;-42
2023/02/27 01:06:19;;;;;;;6.70;5.17;;;;;;;;;;4992503;28;20470;-42
2023/02/27 01:08:45;;;;;;;5.00;4.60;;;;;;;;;;4992011;28;20465;-44
2023/02/27 01:11:11;;;;;;;5.10;4.70;;;;;;;;;;4991699;28;20447;-41
2023/02/27 01:13:37;;;;;;;8.50;5.50;;;;;;;;;;4992330;28;20420;-41
2023/02/27 01:28:17;;;;;;;5.78;5.30;;;;;;;;;;4985531;28;20234;-42
2023/02/27 01:30:43;;;;;;;7.80;5.03;;;;;;;;;;4991254;28;20197;-42
2023/02/27 01:33:09;;;;;;;5.40;4.90;;;;;;;;;;4991874;28;20544;-42
2023/02/27 01:35:35;;;;;;;9.13;5.80;;;;;;;;;;4992185;28;20173;-41
2023/02/27 01:38:01;;;;;;;6.13;5.60;;;;;;;;;;4991700;28;20789;-43
2023/02/27 01:40:27;;;;;;;6.00;5.30;;;;;;;;;;4991108;28;20793;-44
2023/02/27 01:42:53;;;;;;;6.87;4.80;;;;;;;;;;4991973;28;20479;-41
2023/02/27 01:45:27;;;;;;;6.72;4.93;;;;;;;;;;4991996;28;20703;-42
2023/02/27 01:47:59;;;;;;;5.43;4.95;;;;;;;;;;4991592;28;20223;-41
2023/02/27 01:50:25;;;;;;;6.07;4.80;;;;;;;;;;4991208;28;20291;-41
2023/02/27 01:52:54;;;;;;;5.93;5.33;;;;;;;;;;4991967;28;20230;-41
2023/02/27 01:55:20;;;;;;;7.28;5.15;;;;;;;;;;4991966;28;20444;-41
2023/02/27 01:57:47;;;;;;;7.45;4.68;;;;;;;;;;4991627;28;20173;-42
2023/02/27 02:00:13;;;;;;;8.10;4.20;;;;;;;;;;4990935;28;20177;-42
2023/02/27 02:02:41;;;;;;;8.25;5.95;;;;;;;;;;4990690;28;20227;-46
2023/02/27 02:14:18;;;;;;;6.75;5.88;;;;;;;;;;4995485;28;20242;-41
2023/02/27 02:16:58;;;;;;;6.87;4.80;;;;;;;;;;4995149;28;20172;-42
2023/02/27 02:19:24;;;;;;;12.60;5.60;;;;;;;;;;4995122;28;20486;-41
2023/02/27 02:22:05;;;;;;;7.20;5.93;;;;;;;;;;4994368;28;20323;-41
2023/02/27 02:24:50;;;;;;;6.70;4.72;;;;;;;;;;4995421;28;20418;-42
2023/02/27 02:27:25;;;;;;;5.43;5.03;;;;;;;;;;4987945;28;20177;-43
2023/02/27 02:29:54;;;;;;;6.45;5.15;;;;;;;;;;4995016;28;20191;-43
2023/02/27 02:32:32;;;;;;;5.60;5.03;;;;;;;;;;4994109;28;20280;-41
2023/02/27 02:35:07;;;;;;;8.90;7.47;;;;;;;;;;4994953;28;20258;-41
2023/02/27 02:37:46;;;;;;;6.95;6.30;;;;;;;;;;4994624;28;20191;-41
2023/02/27 02:40:26;;;;;;;6.47;5.88;;;;;;;;;;4986909;28;20175;-42
2023/02/27 02:42:54;;;;;;;6.45;5.22;;;;;;;;;;4994960;28;20223;-43
2023/02/27 02:45:32;;;;;;;11.77;5.45;;;;;;;;;;4995245;28;20181;-43
2023/02/27 02:48:01;;;;;;;7.55;6.05;;;;;;;;;;4994510;28;20536;-42
2023/02/27 02:50:35;;;;;;;5.72;5.15;;;;;;;;;;4993982;28;20265;-42
2023/02/27 03:08:21;;;;;;;6.07;4.95;;;;;;;;;;4987828;28;20674;-41
2023/02/27 03:10:50;;;;;;;8.63;6.22;;;;;;;;;;4993720;28;20224;-41
2023/02/27 03:13:32;;;;;;;6.53;5.90;;;;;;;;;;4994538;28;20291;-42
2023/02/27 03:16:04;;;;;;;5.85;5.35;;;;;;;;;;4994268;28;20184;-41
2023/02/27 03:18:33;;;;;;;7.40;5.60;;;;;;;;;;4994120;28;20184;-41
2023/02/27 03:21:05;;;;;;;6.15;5.55;;;;;;;;;;4993368;28;20244;-42
2023/02/27 03:23:37;;;;;;;8.00;4.65;;;;;;;;;;4993606;28;20181;-41
2023/02/27 03:26:04;;;;;;;6.38;5.80;;;;;;;;;;4994117;28;20209;-41
2023/02/27 03:28:32;;;;;;;9.40;4.90;;;;;;;;;;4993928;28;20555;-41
2023/02/27 03:30:59;;;;;;;7.15;5.60;;;;;;;;;;4993328;28;20284;-42
2023/02/27 03:33:31;;;;;;;4.72;4.22;;;;;;;;;;4993951;28;20657;-42
2023/02/27 03:36:09;;;;;;;7.82;5.60;;;;;;;;;;4992391;28;20193;-41
2023/02/27 03:38:53;;;;;;;5.10;4.50;;;;;;;;;;4993781;28;20231;-42
2023/02/27 03:41:27;;;;;;;4.68;4.28;;;;;;;;;;4991549;28;20215;-42
2023/02/27 03:44:03;;;;;;;5.20;4.78;;;;;;;;;;4993876;28;20181;-42
2023/02/27 03:46:29;;;;;;;7.68;5.07;;;;;;;;;;4993625;28;20184;-41
2023/02/27 03:48:55;;;;;;;6.60;5.20;;;;;;;;;;4993638;28;20247;-41
2023/02/27 03:51:22;;;;;;;5.40;4.87;;;;;;;;;;4993011;28;20608;-42
2023/02/27 03:53:59;;;;;;;6.32;5.60;;;;;;;;;;4993736;28;20424;-41
2023/02/27 03:56:28;;;;;;;10.13;5.72;;;;;;;;;;4993695;28;20223;-41
2023/02/27 03:58:54;;;;;;;6.05;5.53;;;;;;;;;;4992939;28;20646;-41
2023/02/27 04:01:20;;;;;;;6.25;5.47;;;;;;;;;;4992697;28;20216;-41
2023/02/27 04:03:52;;;;;;;5.93;5.43;;;;;;;;;;4993407;28;20180;-42
2023/02/27 04:09:10;;;;;;;19.65;5.70;;;;;;;;;;4993084;28;20267;-42
2023/02/27 04:11:53;;;;;;;6.88;6.10;;;;;;;;;;4992555;28;20201;-41
2023/02/27 04:14:27;;;;;;;8.23;6.00;;;;;;;;;;4986902;28;20185;-42
2023/02/27 04:17:12;;;;;;;6.85;5.80;;;;;;;;;;4993190;28;20195;-42
2023/02/27 04:19:38;;;;;;;7.40;5.43;;;;;;;;;;4993006;28;20279;-42
2023/02/27 04:22:21;;;;;;;5.53;4.90;;;;;;;;;;4992167;28;20296;-42
2023/02/27 04:25:06;;;;;;;7.72;5.18;;;;;;;;;;4993011;28;20425;-42
2023/02/27 04:27:37;;;;;;;5.75;5.32;;;;;;;;;;4992821;28;20180;-43
2023/02/27 04:30:03;;;;;;;5.72;5.30;;;;;;;;;;4992286;28;20211;-45
2023/02/27 04:32:29;;;;;;;8.97;6.43;;;;;;;;;;4992512;28;20205;-42
2023/02/27 04:34:57;;;;;;;7.80;6.57;;;;;;;;;;4992223;28;20412;-41
2023/02/27 04:37:37;;;;;;;8.85;5.47;;;;;;;;;;4992550;28;20507;-42
2023/02/27 04:40:06;;;;;;;7.80;6.15;;;;;;;;;;4992575;28;20181;-41
2023/02/27 04:42:34;;;;;;;8.57;5.63;;;;;;;;;;4992445;28;20208;-44
2023/02/27 04:45:04;;;;;;;13.55;5.88;;;;;;;;;;4992752;28;20204;-42
2023/02/27 04:47:32;;;;;;;10.43;6.53;;;;;;;;;;4992504;28;20180;-41
2023/02/27 04:50:01;;;;;;;5.93;5.32;;;;;;;;;;4992595;28;20219;-40
2023/02/27 04:52:33;;;;;;;8.68;4.97;;;;;;;;;;4992144;28;20244;-42
2023/02/27 04:55:19;;;;;;;11.15;7.38;;;;;;;;;;4992421;28;20200;-43
2023/02/27 04:57:48;;;;;;;6.60;5.57;;;;;;;;;;4992061;28;20231;-43
2023/02/27 05:00:16;;;;;;;14.32;6.18;;;;;;;;;;4991827;28;20173;-41
2023/02/27 05:02:43;;;;;;;7.32;6.35;;;;;;;;;;4992074;28;20742;-44
2023/02/27 05:05:13;;;;;;;14.02;6.55;;;;;;;;;;4989177;28;20177;-41
2023/02/27 05:07:41;;;;;;;7.03;5.47;;;;;;;;;;4992116;28;20232;-42
2023/02/27 05:10:28;;;;;;;6.72;5.88;;;;;;;;;;4991734;28;20242;-42
2023/02/27 05:12:57;;;;;;;8.70;6.45;;;;;;;;;;4992241;28;20231;-42
2023/02/27 05:15:26;;;;;;;7.75;5.53;;;;;;;;;;4992262;28;20188;-42
2023/02/27 05:17:59;;;;;;;6.38;5.82;;;;;;;;;;4991935;28;20185;-41
2023/02/27 05:20:26;;;;;;;8.80;6.40;;;;;;;;;;4991419;28;20181;-43
2023/02/27 05:23:00;;;;;;;7.68;5.50;;;;;;;;;;4992066;28;20691;-42
2023/02/27 05:25:32;;;;;;;6.65;6.05;;;;;;;;;;4989008;28;20265;-41
2023/02/27 05:28:01;;;;;;;10.57;6.80;;;;;;;;;;4993791;28;20183;-42
2023/02/27 05:30:41;;;;;;;12.45;7.05;;;;;;;;;;4994339;28;20218;-41
2023/02/27 05:33:16;;;;;;;7.07;6.35;;;;;;;;;;4991859;28;20197;-41
2023/02/27 05:35:48;;;;;;;9.68;7.05;;;;;;;;;;4992094;28;20172;-42
2023/02/27 05:38:18;;;;;;;7.53;6.82;;;;;;;;;;4993459;28;20649;-43
2023/02/27 05:40:50;;;;;;;6.63;5.97;;;;;;;;;;4991369;28;20232;-43
2023/02/27 05:43:19;;;;;;;7.38;6.47;;;;;;;;;;4992086;28;20267;-41
2023/02/27 05:45:47;;;;;;;6.47;5.88;;;;;;;;;;4991871;28;20184;-41
2023/02/27 05:48:15;;;;;;;7.38;5.80;;;;;;;;;;4995639;28;20553;-41
2023/02/27 05:50:42;;;;;;;7.90;6.07;;;;;;;;;;4995125;28;20267;-44
2023/02/27 05:53:10;;;;;;;6.22;5.63;;;;;;;;;;4987905;28;20185;-41
2023/02/27 05:55:43;;;;;;;7.90;6.30;;;;;;;;;;4995932;28;20256;-42
2023/02/27 05:58:19;;;;;;;8.38;6.57;;;;;;;;;;4987707;28;20177;-42
2023/02/27 06:00:45;;;;;;;8.00;7.20;;;;;;;;;;4994831;28;20200;-41
2023/02/27 06:03:11;;;;;;;7.50;5.57;;;;;;;;;;4995640;28;20634;-42
2023/02/27 06:05:39;;;;;;;12.00;6.35;;;;;;;;;;4995619;28;20184;-42
2023/02/27 06:08:05;;;;;;;9.52;7.15;;;;;;;;;;4995283;28;20192;-41
2023/02/27 06:10:31;;;;;;;8.00;6.33;;;;;;;;;;4994753;28;20185;-42
2023/02/27 06:12:57;;;;;;;6.20;5.50;;;;;;;;;;4995134;28;20451;-42
2023/02/27 06:15:23;;;;;;;8.20;5.80;;;;;;;;;;4995500;28;20661;-43
2023/02/27 06:17:49;;;;;;;7.03;6.40;;;;;;;;;;4995073;28;20916;-41
2023/02/27 06:20:15;;;;;;;8.47;6.20;;;;;;;;;;4994572;28;20777;-41
2023/02/27 06:22:41;;;;;;;6.07;5.60;;;;;;;;;;4995256;28;20452;-41
2023/02/27 06:25:07;;;;;;;7.22;6.55;;;;;;;;;;4995158;28;20177;-41
2023/02/27 06:27:33;;;;;;;8.75;6.00;;;;;;;;;;4994660;28;20196;-41
2023/02/27 06:29:59;;;;;;;10.63;5.53;;;;;;;;;;4995149;28;20260;-41
2023/02/27 06:32:25;;;;;;;8.50;5.77;;;;;;;;;;4994714;28;20643;-41
2023/02/27 06:34:52;;;;;;;11.07;6.78;;;;;;;;;;4994968;28;20466;-41
2023/02/27 06:37:18;;;;;;;11.93;6.80;;;;;;;;;;4994947;28;20196;-41
2023/02/27 06:39:43;;;;;;;9.48;7.47;;;;;;;;;;4994910;28;20169;-41
2023/02/27 06:42:09;;;;;;;11.40;6.53;;;;;;;;;;4994050;28;20212;-42
2023/02/27 06:44:35;;;;;;;7.20;5.50;;;;;;;;;;4995130;28;20478;-41
2023/02/27 06:47:01;;;;;;;15.48;7.30;;;;;;;;;;4994687;28;20427;-42
2023/02/27 06:49:27;;;;;;;6.83;6.20;;;;;;;;;;4994548;28;20219;-42
2023/02/27 06:51:53;;;;;;;7.40;5.90;;;;;;;;;;4993969;28;20444;-44
2023/02/27 06:54:19;;;;;;;11.60;6.43;;;;;;;;;;4994752;28;20416;-41
2023/02/27 06:56:45;;;;;;;10.00;6.50;;;;;;;;;;4994431;28;20427;-41
2023/02/27 06:59:11;;;;;;;5.65;5.13;;;;;;;;;;4993652;28;20412;-41
2023/02/27 07:01:37;;;;;;;11.60;5.95;;;;;;;;;;4993928;28;20205;-42
2023/02/27 07:04:03;;;;;;;6.63;5.87;;;;;;;;;;4993500;28;20176;-41
2023/02/27 07:06:30;;;;;;;9.00;7.15;;;;;;;;;;4993881;28;20412;-42
2023/02/27 07:08:56;;;;;;;7.60;6.00;;;;;;;;;;4993741;28;20256;-43
2023/02/27 07:11:22;;;;;;;9.27;5.03;;;;;;;;;;4992861;28;20295;-42
2023/02/27 07:13:48;;;;;;;7.67;5.73;;;;;;;;;;4994109;28;20420;-41
2023/02/27 07:16:14;;;;;;;9.07;5.90;;;;;;;;;;4994221;28;20444;-41
2023/02/27 07:18:40;;;;;;;5.97;5.40;;;;;;;;;;4994153;28;20645;-42
2023/02/27 07:21:06;;;;;;;7.70;5.40;;;;;;;;;;4993386;28;20471;-41
2023/02/27 07:23:32;;;;;;;8.82;6.30;;;;;;;;;;4994145;28;20416;-41
2023/02/27 07:25:58;;;;;;;7.03;6.32;;;;;;;;;;4993949;28;20173;-42
2023/02/27 07:28:24;;;;;;;10.23;5.80;;;;;;;;;;4992720;28;20510;-42
2023/02/27 07:30:53;;;;;;;8.13;5.10;;;;;;;;;;4991585;28;20852;-43
2023/02/27 07:33:19;;;;;;;5.82;4.45;;;;;;;;;;4989835;28;20790;-43
2023/02/27 07:35:45;;;;;;;5.82;4.60;;;;;;;;;;4998052;28;20637;-41
2023/02/27 07:38:11;;;;;;;13.83;5.63;;;;;;;;;;4993373;28;20184;-43
2023/02/27 07:40:37;;;;;;;7.60;4.97;;;;;;;;;;4992812;28;20416;-41
2023/02/27 07:43:03;;;;;;;7.47;5.27;;;;;;;;;;4993679;28;20420;-41
2023/02/27 07:45:29;;;;;;;8.43;5.88;;;;;;;;;;4996322;28;20500;-41
2023/02/27 07:47:55;;;;;;;5.05;4.60;;;;;;;;;;4993550;28;20173;-42
2023/02/27 07:50:21;;;;;;;10.50;5.00;;;;;;;;;;4992935;28;20180;-41
2023/02/27 07:52:46;;;;;;;9.40;5.57;;;;;;;;;;4993491;28;20412;-42
2023/02/27 07:55:13;;;;;;;5.80;5.20;;;;;;;;;;4993361;28;20416;-42
2023/02/27 07:57:39;;;;;;;5.75;4.72;;;;;;;;;;4993484;28;20901;-42
2023/02/27 08:00:06;;;;;;;6.72;5.28;;;;;;;;;;4992716;28;20181;-45
2023/02/27 08:02:32;;;;;;;5.70;5.10;;;;;;;;;;4993166;28;20291;-41
2023/02/27 08:04:58;;;;;;;5.68;4.95;;;;;;;;;;4993270;28;20181;-42
2023/02/27 08:07:24;;;;;;;4.70;4.23;;;;;;;;;;4992725;28;20185;-42
2023/02/27 08:09:51;;;;;;;8.18;5.47;;;;;;;;;;4991398;28;20491;-42
2023/02/27 08:12:16;;;;;;;6.40;4.57;;;;;;;;;;4991460;28;20197;-42
2023/02/27 08:14:42;;;;;;;4.57;4.10;;;;;;;;;;4993016;28;20243;-44
2023/02/27 08:17:08;;;;;;;8.03;4.10;;;;;;;;;;4992519;28;20424;-43
2023/02/27 08:19:34;;;;;;;5.77;4.20;;;;;;;;;;4993010;28;20412;-42
2023/02/27 08:22:00;;;;;;;6.87;5.80;;;;;;;;;;4992027;28;20901;-42
2023/02/27 08:24:26;;;;;;;3.95;3.63;;;;;;;;;;4993021;28;20755;-42
2023/02/27 08:26:52;;;;;;;5.30;4.00;;;;;;;;;;4992780;28;20173;-43
2023/02/27 08:29:18;;;;;;;4.20;3.80;;;;;;;;;;4992688;28;20193;-44
2023/02/27 08:31:45;;;;;;;4.47;4.07;;;;;;;;;;4992224;28;20739;-42
2023/02/27 08:34:11;;;;;;;5.60;3.93;;;;;;;;;;4992696;28;20459;-42
2023/02/27 08:36:37;;;;;;;4.40;3.73;;;;;;;;;;4992690;28;20523;-42
2023/02/27 08:39:04;;;;;;;4.13;3.53;;;;;;;;;;4992509;28;20423;-43
2023/02/27 08:41:30;;;;;;;7.65;4.10;;;;;;;;;;4991689;28;20472;-41
2023/02/27 08:43:56;;;;;;;3.70;3.20;;;;;;;;;;4990923;28;20185;-43
2023/02/27 08:46:22;;;;;;;6.93;4.13;;;;;;;;;;4992033;28;20173;-43
2023/02/27 08:48:48;;;;;;;3.40;3.10;;;;;;;;;;4992399;28;20409;-42
2023/02/27 08:51:13;;;;;;;6.13;3.53;;;;;;;;;;4991852;28;20473;-42
2023/02/27 08:53:39;;;;;;;4.43;3.93;;;;;;;;;;4992434;28;20487;-42
2023/02/27 08:56:06;;;;;;;4.93;4.00;;;;;;;;;;4992637;28;20415;-42
2023/02/27 08:58:33;;;;;;;4.10;3.70;;;;;;;;;;4992372;28;20422;-43
2023/02/27 09:00:59;;;;;;;6.60;3.83;;;;;;;;;;4991524;28;20498;-43
2023/02/27 09:03:27;;;;;;;5.00;3.27;;;;;;;;;;4992527;28;20489;-43
2023/02/27 09:05:53;;;;;;;4.40;4.07;;;;;;;;;;4992773;28;20913;-43
2023/02/27 09:08:19;;;;;;;4.77;3.63;;;;;;;;;;4985937;28;20412;-43
2023/02/27 09:10:45;;;;;;;4.17;3.40;;;;;;;;;;4991474;28;20530;-43
2023/02/27 09:13:12;;;;;;;4.67;3.20;;;;;;;;;;4992227;28;20408;-44
2023/02/27 09:15:38;;;;;;;5.73;3.67;;;;;;;;;;4992347;28;20851;-43
2023/02/27 09:18:05;;;;;;;6.63;3.47;;;;;;;;;;4992007;28;20469;-43
2023/02/27 09:20:32;;;;;;;8.10;4.10;;;;;;;;;;4991101;28;20420;-43
2023/02/27 09:22:58;;;;;;;6.40;3.10;;;;;;;;;;4991894;28;20556;-43
2023/02/27 09:25:25;;;;;;;3.37;3.07;;;;;;;;;;4992248;28;20789;-44
2023/02/27 09:27:51;;;;;;;5.57;3.07;;;;;;;;;;4991990;28;20454;-44
2023/02/27 09:30:17;;;;;;;2.70;2.50;;;;;;;;;;4991436;28;20886;-43
2023/02/27 09:32:43;;;;;;;7.33;2.77;;;;;;;;;;4991838;28;21002;-44
2023/02/27 09:35:09;;;;;;;5.87;3.47;;;;;;;;;;4991887;28;20422;-43
2023/02/27 09:37:35;;;;;;;4.40;2.50;;;;;;;;;;4991880;28;20837;-44
2023/02/27 09:40:01;;;;;;;3.60;2.53;;;;;;;;;;4991768;28;20420;-43
2023/02/27 09:42:30;;;;;;;4.30;2.47;;;;;;;;;;4991427;28;20458;-43
2023/02/27 09:44:57;;;;;;;5.03;2.70;;;;;;;;;;4992134;28;20440;-43
2023/02/27 09:47:44;;;;;;;3.43;2.07;;;;;;;;;;4991696;28;20394;-44
2023/02/27 09:50:24;;;;;;;6.07;2.30;;;;;;;;;;4989686;28;20758;-44
2023/02/27 09:52:50;;;;;;;5.20;2.87;;;;;;;;;;4991883;28;20780;-43
2023/02/27 09:55:21;;;;;;;8.93;2.83;;;;;;;;;;4991981;28;20423;-43
2023/02/27 09:58:00;;;;;;;3.20;2.63;;;;;;;;;;4991564;28;20429;-43
2023/02/27 10:00:27;;;;;;;2.43;2.10;;;;;;;;;;4988117;28;20436;-43
2023/02/27 10:03:12;;;;;;;2.40;2.20;;;;;;;;;;4991286;28;20459;-44
2023/02/27 10:05:38;;;;;;;5.70;3.37;;;;;;;;;;4991757;28;20446;-43
2023/02/27 10:08:09;;;;;;;2.83;2.50;;;;;;;;;;4991456;28;20432;-44
2023/02/27 10:10:44;;;;;;;5.90;2.90;;;;;;;;;;4990942;28;20412;-43
2023/02/27 10:13:32;;;;;;;2.40;2.20;;;;;;;;;;4988575;28;20503;-43
2023/02/27 10:15:59;;;;;;;5.47;2.47;;;;;;;;;;4991676;28;20915;-44
2023/02/27 10:18:30;;;;;;;8.33;2.43;;;;;;;;;;4991381;28;20389;-43
2023/02/27 10:20:58;;;;;;;4.80;2.53;;;;;;;;;;4990266;28;20805;-43
2023/02/27 10:23:42;;;;;;;3.43;2.10;;;;;;;;;;4991593;28;20427;-43
2023/02/27 10:26:17;;;;;;;3.10;2.40;;;;;;;;;;4983652;28;20946;-43
2023/02/27 10:28:43;;;;;;;3.77;2.27;;;;;;;;;;4991283;28;20386;-44
2023/02/27 10:31:15;;;;;;;2.60;2.40;;;;;;;;;;4990678;28;20521;-44
2023/02/27 10:33:43;;;;;;;2.60;2.40;;;;;;;;;;4992890;28;20424;-43
2023/02/27 10:36:12;;;;;;;2.80;1.90;;;;;;;;;;4995047;28;20412;-43
2023/02/27 10:38:43;;;;;;;5.43;2.40;;;;;;;;;;4994733;28;20415;-44
2023/02/27 10:41:13;;;;;;;3.23;1.90;;;;;;;;;;4990725;28;20610;-43
2023/02/27 10:43:39;;;;;;;3.70;2.10;;;;;;;;;;4992746;28;20393;-44
2023/02/27 10:46:24;;;;;;;4.37;2.43;;;;;;;;;;4994561;28;20390;-43
2023/02/27 10:48:50;;;;;;;4.30;2.47;;;;;;;;;;4994366;28;20430;-44
2023/02/27 10:51:25;;;;;;;7.53;2.80;;;;;;;;;;4993941;28;20886;-44
2023/02/27 10:53:52;;;;;;;3.17;2.47;;;;;;;;;;4994345;28;20423;-43
2023/02/27 10:56:25;;;;;;;2.07;1.97;;;;;;;;;;4994362;28;20410;-43
2023/02/27 10:59:02;;;;;;;4.10;2.17;;;;;;;;;;4994071;28;20535;-44
2023/02/27 11:01:40;;;;;;;3.30;2.60;;;;;;;;;;4993757;28;20478;-44
2023/02/27 11:04:06;;;;;;;6.07;2.80;;;;;;;;;;4994259;28;20415;-43
2023/02/27 11:06:32;;;;;;;5.10;2.10;;;;;;;;;;4994064;28;20411;-44
2023/02/27 11:09:20;;;;;;;3.23;2.53;;;;;;;;;;4993948;28;20507;-44
2023/02/27 11:11:46;;;;;;;3.93;2.73;;;;;;;;;;4993407;28;20443;-44
2023/02/27 11:14:32;;;;;;;3.73;2.40;;;;;;;;;;4994169;28;20426;-43
2023/02/27 11:16:59;;;;;;;2.70;2.40;;;;;;;;;;4993673;28;20403;-43
2023/02/27 11:19:26;;;;;;;2.90;2.20;;;;;;;;;;4993866;28;20419;-44
2023/02/27 11:22:03;;;;;;;4.73;2.20;;;;;;;;;;4993315;28;20471;-43
2023/02/27 11:24:29;;;;;;;5.73;2.57;;;;;;;;;;4994031;28;20770;-43
2023/02/27 11:26:57;;;;;;;3.70;2.70;;;;;;;;;;4992272;28;20507;-43
2023/02/27 11:29:23;;;;;;;4.17;2.77;;;;;;;;;;4993767;28;20420;-44
2023/02/27 11:31:52;;;;;;;2.40;2.20;;;;;;;;;;4993218;28;20947;-44
2023/02/27 11:34:27;;;;;;;3.20;2.23;;;;;;;;;;4993956;28;20987;-43
2023/02/27 11:36:55;;;;;;;4.20;3.23;;;;;;;;;;4993869;28;20807;-44
2023/02/27 11:39:37;;;;;;;7.27;2.90;;;;;;;;;;4993717;28;20482;-44
2023/02/27 11:42:11;;;;;;;2.70;2.50;;;;;;;;;;4991494;28;20478;-44
2023/02/27 11:44:37;;;;;;;3.27;2.80;;;;;;;;;;4991775;28;20428;-44
2023/02/27 11:47:07;;;;;;;7.70;2.90;;;;;;;;;;4992907;28;20823;-44
2023/02/27 11:49:56;;;;;;;3.23;2.80;;;;;;;;;;4991752;28;21226;-44
2023/02/27 11:52:46;;;;;;;3.97;2.80;;;;;;;;;;4992396;28;20476;-44
2023/02/27 11:55:17;;;;;;;3.30;2.57;;;;;;;;;;4988229;28;20485;-43
2023/02/27 11:57:45;;;;;;;3.00;2.23;;;;;;;;;;4993237;28;20410;-44
2023/02/27 12:00:19;;;;;;;2.93;2.57;;;;;;;;;;4992985;28;20418;-44
2023/02/27 12:02:53;;;;;;;9.27;2.73;;;;;;;;;;4991737;28;20462;-47
2023/02/27 12:05:29;;;;;;;3.10;2.50;;;;;;;;;;4992616;28;20415;-47
2023/02/27 12:07:55;;;;;;;9.37;3.37;;;;;;;;;;4994576;28;21044;-47
2023/02/27 12:10:22;;;;;;;2.43;1.90;;;;;;;;;;4994021;28;20420;-44
2023/02/27 12:12:48;;;;;;;2.17;2.07;;;;;;;;;;4993302;28;20408;-44
2023/02/27 12:15:19;;;;;;;3.27;2.50;;;;;;;;;;4993224;28;20416;-44
2023/02/27 12:17:51;;;;;;;4.10;2.87;;;;;;;;;;4992974;28;20448;-44
2023/02/27 12:20:26;;;;;;;4.00;2.90;;;;;;;;;;4992463;28;20448;-45
2023/02/27 12:22:53;;;;;;;3.67;2.20;;;;;;;;;;4992852;28;20503;-44
2023/02/27 12:25:37;;;;;;;3.67;1.87;;;;;;;;;;4993194;28;20761;-44
2023/02/27 12:28:03;;;;;;;2.70;2.30;;;;;;;;;;4992337;28;20486;-44
2023/02/27 12:30:33;;;;;;;5.13;2.50;;;;;;;;;;4992250;28;20521;-46
2023/02/27 12:33:25;;;;;;;4.27;2.03;;;;;;;;;;4992543;28;20403;-42
2023/02/27 12:36:00;;;;;;;9.37;3.30;;;;;;;;;;4984939;28;20421;-47
2023/02/27 12:38:26;;;;;;;5.73;2.00;;;;;;;;;;4991821;28;20945;-42
2023/02/27 12:41:01;;;;;;;5.47;3.37;;;;;;;;;;4991941;28;20410;-44
2023/02/27 12:43:27;;;;;;;8.73;2.70;;;;;;;;;;4992072;28;20426;-42
2023/02/27 12:45:53;;;;;;;3.07;2.80;;;;;;;;;;4992890;28;20795;-42
2023/02/27 12:48:19;;;;;;;2.80;2.60;;;;;;;;;;4992201;28;20378;-42
2023/02/27 12:51:04;;;;;;;4.07;2.63;;;;;;;;;;4991935;28;20420;-43
2023/02/27 12:53:30;;;;;;;2.17;1.97;;;;;;;;;;4987845;28;20446;-42
2023/02/27 12:56:08;;;;;;;2.70;2.37;;;;;;;;;;4992098;28;20478;-42
2023/02/27 12:58:34;;;;;;;4.03;2.37;;;;;;;;;;4992715;28;20420;-42
2023/02/27 13:01:24;;;;;;;6.70;2.23;;;;;;;;;;4991444;28;20454;-44
2023/02/27 13:03:59;;;;;;;3.20;2.67;;;;;;;;;;4992504;28;20466;-43
2023/02/27 13:06:29;;;;;;;6.60;2.00;;;;;;;;;;4992494;28;20416;-42
2023/02/27 13:09:11;;;;;;;2.73;2.10;;;;;;;;;;4992282;28;20434;-42
2023/02/27 13:11:52;;;;;;;3.63;2.33;;;;;;;;;;4991870;28;20443;-42
2023/02/27 13:14:30;;;;;;;3.87;2.30;;;;;;;;;;4985869;28;20940;-43
2023/02/27 13:17:00;;;;;;;3.63;2.13;;;;;;;;;;4992215;28;20426;-43
2023/02/27 13:19:29;;;;;;;3.80;2.33;;;;;;;;;;4992482;28;20415;-43
2023/02/27 13:22:00;;;;;;;5.50;1.83;;;;;;;;;;4991834;28;20466;-44
2023/02/27 13:24:27;;;;;;;2.33;2.10;;;;;;;;;;4992503;28;20561;-44
2023/02/27 13:27:00;;;;;;;1.83;1.73;;;;;;;;;;4992252;28;20428;-44
2023/02/27 13:29:32;;;;;;;5.00;2.20;;;;;;;;;;4991884;28;20422;-43
2023/02/27 13:31:58;;;;;;;3.50;2.50;;;;;;;;;;4992535;28;20449;-42
2023/02/27 13:34:37;;;;;;;3.60;2.30;;;;;;;;;;4992496;28;20484;-42
2023/02/27 13:37:04;;;;;;;3.90;2.50;;;;;;;;;;4992378;28;20449;-44
2023/02/27 13:39:37;;;;;;;3.70;2.80;;;;;;;;;;4992449;28;20412;-42
2023/02/27 13:42:03;;;;;;;2.40;2.20;;;;;;;;;;4987759;28;20470;-42
2023/02/27 13:44:35;;;;;;;4.70;3.00;;;;;;;;;;4992617;28;20430;-44
2023/02/27 13:47:20;;;;;;;6.00;4.40;;;;;;;;;;4992001;28;20416;-46
2023/02/27 13:49:46;;;;;;;2.77;2.57;;;;;;;;;;4993122;28;20763;-44
2023/02/27 13:52:12;;;;;;;6.20;3.60;;;;;;;;;;4991801;28;20483;-44
2023/02/27 13:54:41;;;;;;;4.70;4.30;;;;;;;;;;4974152;28;20424;-44
2023/02/27 13:57:16;;;;;;;6.43;3.50;;;;;;;;;;4990541;28;20416;-44
2023/02/27 13:59:51;;;;;;;5.50;4.00;;;;;;;;;;4991359;28;20422;-47
2023/02/27 14:02:26;;;;;;;4.17;3.07;;;;;;;;;;4989817;28;20455;-43
2023/02/27 14:04:57;;;;;;;3.40;3.10;;;;;;;;;;4990789;28;20481;-45
2023/02/27 14:07:31;;;;;;;3.63;3.33;;;;;;;;;;4991230;28;20411;-42
2023/02/27 14:10:07;;;;;;;5.63;3.63;;;;;;;;;;4992837;28;20434;-42
2023/02/27 14:12:36;;;;;;;3.53;3.33;;;;;;;;;;4995678;28;20792;-44
2023/02/27 14:15:22;;;;;;;5.07;3.37;;;;;;;;;;4995905;28;20474;-46
2023/02/27 14:17:51;;;;;;;5.83;3.20;;;;;;;;;;4995899;28;20416;-47
2023/02/27 14:20:26;;;;;;;3.57;3.27;;;;;;;;;;4996955;28;20423;-47
2023/02/27 14:23:10;;;;;;;5.30;3.70;;;;;;;;;;4996517;28;20462;-45
2023/02/27 14:25:47;;;;;;;5.17;3.30;;;;;;;;;;4995836;28;20410;-45
2023/02/27 14:28:15;;;;;;;3.60;3.30;;;;;;;;;;4993189;28;20445;-47
2023/02/27 14:30:43;;;;;;;3.30;3.10;;;;;;;;;;4994741;28;20406;-45
2023/02/27 14:33:18;;;;;;;4.70;3.27;;;;;;;;;;4988282;28;20944;-46
2023/02/27 14:35:46;;;;;;;4.27;3.47;;;;;;;;;;4995369;28;20422;-44
2023/02/27 14:38:15;;;;;;;8.17;4.40;;;;;;;;;;4994898;28;20505;-43
2023/02/27 14:40:51;;;;;;;6.17;3.77;;;;;;;;;;4994410;28;20425;-43
2023/02/27 14:43:28;;;;;;;4.27;3.97;;;;;;;;;;4988439;28;20930;-44
2023/02/27 14:45:55;;;;;;;4.43;3.20;;;;;;;;;;4992659;28;20418;-44
2023/02/27 14:48:27;;;;;;;4.70;3.87;;;;;;;;;;4994704;28;20474;-44
2023/02/27 14:50:56;;;;;;;4.60;3.20;;;;;;;;;;4994047;28;20928;-44
2023/02/27 14:53:23;;;;;;;3.67;3.40;;;;;;;;;;4995347;28;20400;-44
2023/02/27 14:55:54;;;;;;;3.23;2.90;;;;;;;;;;4994715;28;20446;-44
2023/02/27 14:58:21;;;;;;;3.53;3.20;;;;;;;;;;4994991;28;20408;-44
2023/02/27 15:00:49;;;;;;;3.53;3.07;;;;;;;;;;4996495;28;20421;-47
2023/02/27 15:03:15;;;;;;;4.00;3.60;;;;;;;;;;4995155;28;20517;-46
2023/02/27 15:05:41;;;;;;;3.10;2.90;;;;;;;;;;4995468;28;20417;-47
2023/02/27 15:08:13;;;;;;;5.27;3.07;;;;;;;;;;4994924;28;20408;-46
2023/02/27 15:10:41;;;;;;;6.77;3.10;;;;;;;;;;4994228;28;20401;-46
2023/02/27 15:13:17;;;;;;;3.50;3.10;;;;;;;;;;4995340;28;20408;-45
2023/02/27 15:15:43;;;;;;;3.97;3.40;;;;;;;;;;4995442;28;20931;-44
2023/02/27 15:18:13;;;;;;;2.87;2.67;;;;;;;;;;4994592;28;20414;-46
2023/02/27 15:20:39;;;;;;;7.43;3.63;;;;;;;;;;4992968;28;20414;-42
2023/02/27 15:23:20;;;;;;;4.10;2.70;;;;;;;;;;4993979;28;20470;-42
2023/02/27 15:25:46;;;;;;;3.90;3.20;;;;;;;;;;4994056;28;20421;-43
2023/02/27 15:28:23;;;;;;;6.40;2.83;;;;;;;;;;4993888;28;20858;-42
2023/02/27 15:30:49;;;;;;;4.43;3.40;;;;;;;;;;4993224;28;20433;-44
2023/02/27 15:33:16;;;;;;;3.77;3.47;;;;;;;;;;4993928;28;20936;-44
2023/02/27 15:35:43;;;;;;;3.33;3.03;;;;;;;;;;4993944;28;20417;-44
2023/02/27 15:38:23;;;;;;;3.60;3.30;;;;;;;;;;4990734;28;20514;-44
2023/02/27 15:40:49;;;;;;;4.17;2.90;;;;;;;;;;4992889;28;20456;-44
2023/02/27 15:43:15;;;;;;;3.50;3.20;;;;;;;;;;4993874;28;20468;-44
2023/02/27 15:45:41;;;;;;;3.53;3.33;;;;;;;;;;4993755;28;20434;-44
2023/02/27 15:48:12;;;;;;;4.40;2.50;;;;;;;;;;4993209;28;20891;-44
2023/02/27 15:50:40;;;;;;;4.43;3.50;;;;;;;;;;4992880;28;20453;-44
2023/02/27 15:53:06;;;;;;;4.83;4.30;;;;;;;;;;4993367;28;20414;-44
2023/02/27 15:55:53;;;;;;;4.13;3.83;;;;;;;;;;4993621;28;20471;-44
2023/02/27 15:58:19;;;;;;;3.67;3.40;;;;;;;;;;4992970;28;20426;-43